sensor_id;sensor_type;location;lat;lon;timestamp;P1;durP1;ratioP1;P2;durP2;ratioP2
24995;SDS011;13016;52.162;21.034;2022-10-16T13:25:38;13.15;;;8.15;;
24995;SDS011;13016;52.162;21.034;2022-10-16T13:28:14;11.13;;;7.47;;
24995;SDS011;13016;52.162;21.034;2022-10-16T13:30:53;9.13;;;7.60;;
24995;SDS011;13016;52.162;21.034;2022-10-16T13:36:25;10.82;;;7.38;;
24995;SDS011;13016;52.162;21.034;2022-10-16T13:51:23;10.48;;;7.68;;
24995;SDS011;13016;52.162;21.034;2022-10-16T13:53:48;11.90;;;7.97;;
24995;SDS011;13016;52.162;21.034;2022-10-16T13:56:15;9.15;;;7.50;;
24995;SDS011;13016;52.162;21.034;2022-10-16T13:58:42;10.73;;;8.10;;
24995;SDS011;13016;52.162;21.034;2022-10-16T14:01:15;11.55;;;7.55;;
24995;SDS011;13016;52.162;21.034;2022-10-16T14:03:43;10.52;;;7.30;;
24995;SDS011;13016;52.162;21.034;2022-10-16T14:06:17;9.68;;;7.40;;
24995;SDS011;13016;52.162;21.034;2022-10-16T14:08:54;10.43;;;7.43;;
24995;SDS011;13016;52.162;21.034;2022-10-16T14:11:21;10.88;;;7.63;;
24995;SDS011;13016;52.162;21.034;2022-10-16T14:13:48;8.48;;;7.32;;
24995;SDS011;13016;52.162;21.034;2022-10-16T14:16:20;9.50;;;6.85;;
24995;SDS011;13016;52.162;21.034;2022-10-16T14:18:59;10.32;;;7.07;;
24995;SDS011;13016;52.162;21.034;2022-10-16T14:21:27;8.60;;;7.35;;
24995;SDS011;13016;52.162;21.034;2022-10-16T14:23:54;9.50;;;7.60;;
24995;SDS011;13016;52.162;21.034;2022-10-16T14:26:22;10.75;;;7.60;;
24995;SDS011;13016;52.162;21.034;2022-10-16T14:29:00;9.00;;;6.88;;
24995;SDS011;13016;52.162;21.034;2022-10-16T14:31:29;10.68;;;7.32;;
24995;SDS011;13016;52.162;21.034;2022-10-16T14:33:55;10.63;;;7.30;;
24995;SDS011;13016;52.162;21.034;2022-10-16T14:36:21;11.15;;;7.80;;
24995;SDS011;13016;52.162;21.034;2022-10-16T14:38:49;11.60;;;7.40;;
24995;SDS011;13016;52.162;21.034;2022-10-16T14:41:15;9.45;;;7.60;;
24995;SDS011;13016;52.162;21.034;2022-10-16T14:43:49;10.20;;;7.70;;
24995;SDS011;13016;52.162;21.034;2022-10-16T14:46:18;11.35;;;7.63;;
24995;SDS011;13016;52.162;21.034;2022-10-16T14:48:47;9.30;;;7.90;;
24995;SDS011;13016;52.162;21.034;2022-10-16T14:51:16;10.20;;;7.85;;
24995;SDS011;13016;52.162;21.034;2022-10-16T14:53:43;11.30;;;8.38;;
24995;SDS011;13016;52.162;21.034;2022-10-16T14:56:14;9.27;;;7.65;;
24995;SDS011;13016;52.162;21.034;2022-10-16T14:58:43;12.20;;;8.40;;
24995;SDS011;13016;52.162;21.034;2022-10-16T15:01:09;10.05;;;8.07;;
24995;SDS011;13016;52.162;21.034;2022-10-16T15:03:36;11.57;;;8.18;;
24995;SDS011;13016;52.162;21.034;2022-10-16T15:06:02;21.85;;;8.85;;
24995;SDS011;13016;52.162;21.034;2022-10-16T15:08:28;12.35;;;8.98;;
24995;SDS011;13016;52.162;21.034;2022-10-16T15:10:53;11.23;;;8.68;;
24995;SDS011;13016;52.162;21.034;2022-10-16T15:13:19;11.63;;;8.77;;
24995;SDS011;13016;52.162;21.034;2022-10-16T15:15:45;13.50;;;8.35;;
24995;SDS011;13016;52.162;21.034;2022-10-16T15:18:12;12.95;;;8.95;;
24995;SDS011;13016;52.162;21.034;2022-10-16T15:20:39;12.25;;;8.52;;
24995;SDS011;13016;52.162;21.034;2022-10-16T15:23:14;12.88;;;8.38;;
24995;SDS011;13016;52.162;21.034;2022-10-16T15:25:42;12.60;;;8.13;;
24995;SDS011;13016;52.162;21.034;2022-10-16T15:28:10;9.98;;;7.90;;
24995;SDS011;13016;52.162;21.034;2022-10-16T15:30:36;11.75;;;8.75;;
24995;SDS011;13016;52.162;21.034;2022-10-16T15:33:03;10.77;;;8.02;;
24995;SDS011;13016;52.162;21.034;2022-10-16T15:35:29;11.45;;;8.13;;
24995;SDS011;13016;52.162;21.034;2022-10-16T15:37:55;11.00;;;7.97;;
24995;SDS011;13016;52.162;21.034;2022-10-16T15:40:21;12.32;;;8.77;;
24995;SDS011;13016;52.162;21.034;2022-10-16T15:42:47;11.73;;;9.02;;
24995;SDS011;13016;52.162;21.034;2022-10-16T15:45:13;12.27;;;8.68;;
24995;SDS011;13016;52.162;21.034;2022-10-16T15:47:40;11.10;;;8.98;;
24995;SDS011;13016;52.162;21.034;2022-10-16T15:50:06;13.90;;;8.55;;
24995;SDS011;13016;52.162;21.034;2022-10-16T15:52:32;12.85;;;9.40;;
24995;SDS011;13016;52.162;21.034;2022-10-16T15:54:58;12.63;;;9.05;;
24995;SDS011;13016;52.162;21.034;2022-10-16T15:57:24;14.55;;;8.63;;
24995;SDS011;13016;52.162;21.034;2022-10-16T15:59:50;13.68;;;9.20;;
24995;SDS011;13016;52.162;21.034;2022-10-16T16:02:15;11.27;;;9.23;;
24995;SDS011;13016;52.162;21.034;2022-10-16T16:04:41;13.68;;;9.00;;
24995;SDS011;13016;52.162;21.034;2022-10-16T16:07:06;13.80;;;9.07;;
24995;SDS011;13016;52.162;21.034;2022-10-16T16:09:34;11.57;;;8.70;;
24995;SDS011;13016;52.162;21.034;2022-10-16T16:12:00;15.57;;;9.77;;
24995;SDS011;13016;52.162;21.034;2022-10-16T16:14:26;13.80;;;8.70;;
24995;SDS011;13016;52.162;21.034;2022-10-16T16:16:55;11.38;;;9.38;;
24995;SDS011;13016;52.162;21.034;2022-10-16T16:19:21;11.82;;;9.13;;
24995;SDS011;13016;52.162;21.034;2022-10-16T16:24:19;14.48;;;9.70;;
24995;SDS011;13016;52.162;21.034;2022-10-16T16:26:44;11.35;;;9.43;;
24995;SDS011;13016;52.162;21.034;2022-10-16T16:29:13;12.20;;;9.27;;
24995;SDS011;13016;52.162;21.034;2022-10-16T16:31:39;13.40;;;9.48;;
24995;SDS011;13016;52.162;21.034;2022-10-16T16:34:05;14.20;;;9.38;;
24995;SDS011;13016;52.162;21.034;2022-10-16T16:36:31;11.90;;;9.82;;
24995;SDS011;13016;52.162;21.034;2022-10-16T16:38:57;13.38;;;10.50;;
24995;SDS011;13016;52.162;21.034;2022-10-16T16:41:23;11.60;;;9.88;;
24995;SDS011;13016;52.162;21.034;2022-10-16T16:43:50;15.13;;;10.65;;
24995;SDS011;13016;52.162;21.034;2022-10-16T16:46:15;12.03;;;10.17;;
24995;SDS011;13016;52.162;21.034;2022-10-16T16:48:41;15.40;;;10.80;;
24995;SDS011;13016;52.162;21.034;2022-10-16T16:51:08;13.63;;;11.10;;
24995;SDS011;13016;52.162;21.034;2022-10-16T16:53:35;14.40;;;10.98;;
24995;SDS011;13016;52.162;21.034;2022-10-16T16:56:02;18.67;;;11.68;;
24995;SDS011;13016;52.162;21.034;2022-10-16T16:58:28;14.93;;;11.25;;
24995;SDS011;13016;52.162;21.034;2022-10-16T17:00:53;16.85;;;11.82;;
24995;SDS011;13016;52.162;21.034;2022-10-16T17:03:18;16.45;;;11.73;;
24995;SDS011;13016;52.162;21.034;2022-10-16T17:05:46;16.13;;;11.55;;
24995;SDS011;13016;52.162;21.034;2022-10-16T17:08:22;16.63;;;11.57;;
24995;SDS011;13016;52.162;21.034;2022-10-16T17:10:47;15.40;;;12.00;;
24995;SDS011;13016;52.162;21.034;2022-10-16T17:13:12;17.48;;;12.23;;
24995;SDS011;13016;52.162;21.034;2022-10-16T17:15:41;15.88;;;12.23;;
24995;SDS011;13016;52.162;21.034;2022-10-16T17:18:11;19.60;;;12.33;;
24995;SDS011;13016;52.162;21.034;2022-10-16T17:20:36;18.02;;;12.57;;
24995;SDS011;13016;52.162;21.034;2022-10-16T17:23:01;16.53;;;12.63;;
24995;SDS011;13016;52.162;21.034;2022-10-16T17:25:26;16.45;;;12.10;;
24995;SDS011;13016;52.162;21.034;2022-10-16T17:27:52;17.70;;;12.50;;
24995;SDS011;13016;52.162;21.034;2022-10-16T17:30:17;17.55;;;12.25;;
24995;SDS011;13016;52.162;21.034;2022-10-16T17:32:42;21.17;;;12.97;;
24995;SDS011;13016;52.162;21.034;2022-10-16T17:35:07;20.17;;;13.18;;
24995;SDS011;13016;52.162;21.034;2022-10-16T17:37:33;16.67;;;13.00;;
24995;SDS011;13016;52.162;21.034;2022-10-16T17:39:58;16.33;;;12.70;;
24995;SDS011;13016;52.162;21.034;2022-10-16T17:42:23;19.87;;;13.50;;
24995;SDS011;13016;52.162;21.034;2022-10-16T17:44:48;20.83;;;13.35;;
24995;SDS011;13016;52.162;21.034;2022-10-16T17:47:14;18.98;;;13.18;;
24995;SDS011;13016;52.162;21.034;2022-10-16T17:49:39;20.60;;;14.05;;
24995;SDS011;13016;52.162;21.034;2022-10-16T17:52:04;17.30;;;13.50;;
24995;SDS011;13016;52.162;21.034;2022-10-16T17:54:30;19.52;;;14.13;;
24995;SDS011;13016;52.162;21.034;2022-10-16T17:56:55;21.60;;;14.48;;
24995;SDS011;13016;52.162;21.034;2022-10-16T17:59:20;26.60;;;15.15;;
24995;SDS011;13016;52.162;21.034;2022-10-16T18:01:45;23.10;;;15.80;;
24995;SDS011;13016;52.162;21.034;2022-10-16T18:04:12;23.10;;;15.75;;
24995;SDS011;13016;52.162;21.034;2022-10-16T18:06:40;24.45;;;15.38;;
24995;SDS011;13016;52.162;21.034;2022-10-16T18:09:07;21.38;;;15.43;;
24995;SDS011;13016;52.162;21.034;2022-10-16T18:11:33;24.77;;;16.38;;
24995;SDS011;13016;52.162;21.034;2022-10-16T18:14:20;24.52;;;15.43;;
24995;SDS011;13016;52.162;21.034;2022-10-16T18:16:50;24.20;;;16.23;;
24995;SDS011;13016;52.162;21.034;2022-10-16T18:21:43;23.90;;;15.25;;
24995;SDS011;13016;52.162;21.034;2022-10-16T18:24:09;22.33;;;14.40;;
24995;SDS011;13016;52.162;21.034;2022-10-16T18:26:35;21.42;;;15.40;;
24995;SDS011;13016;52.162;21.034;2022-10-16T18:29:03;23.35;;;16.17;;
24995;SDS011;13016;52.162;21.034;2022-10-16T18:31:31;22.20;;;15.15;;
24995;SDS011;13016;52.162;21.034;2022-10-16T18:33:57;23.70;;;15.57;;
24995;SDS011;13016;52.162;21.034;2022-10-16T18:36:23;21.90;;;14.55;;
24995;SDS011;13016;52.162;21.034;2022-10-16T18:38:51;19.85;;;14.75;;
24995;SDS011;13016;52.162;21.034;2022-10-16T18:41:17;20.92;;;13.88;;
24995;SDS011;13016;52.162;21.034;2022-10-16T18:43:43;20.27;;;14.70;;
24995;SDS011;13016;52.162;21.034;2022-10-16T18:48:56;20.80;;;14.80;;
24995;SDS011;13016;52.162;21.034;2022-10-16T18:53:50;23.02;;;14.25;;
24995;SDS011;13016;52.162;21.034;2022-10-16T18:56:18;21.23;;;14.23;;
24995;SDS011;13016;52.162;21.034;2022-10-16T18:58:44;21.88;;;14.05;;
24995;SDS011;13016;52.162;21.034;2022-10-16T19:01:12;20.90;;;14.50;;
24995;SDS011;13016;52.162;21.034;2022-10-16T19:03:38;21.83;;;15.00;;
24995;SDS011;13016;52.162;21.034;2022-10-16T19:06:05;18.92;;;14.10;;
24995;SDS011;13016;52.162;21.034;2022-10-16T19:08:33;21.88;;;14.75;;
24995;SDS011;13016;52.162;21.034;2022-10-16T19:11:02;18.35;;;13.85;;
24995;SDS011;13016;52.162;21.034;2022-10-16T19:13:29;22.70;;;14.55;;
24995;SDS011;13016;52.162;21.034;2022-10-16T19:16:00;18.58;;;13.60;;
24995;SDS011;13016;52.162;21.034;2022-10-16T19:19:05;17.98;;;13.07;;
24995;SDS011;13016;52.162;21.034;2022-10-16T19:21:51;17.50;;;12.93;;
24995;SDS011;13016;52.162;21.034;2022-10-16T19:24:16;21.23;;;12.68;;
24995;SDS011;13016;52.162;21.034;2022-10-16T19:26:41;17.98;;;13.25;;
24995;SDS011;13016;52.162;21.034;2022-10-16T19:29:07;20.95;;;13.07;;
24995;SDS011;13016;52.162;21.034;2022-10-16T19:31:33;21.35;;;13.88;;
24995;SDS011;13016;52.162;21.034;2022-10-16T19:33:59;19.10;;;13.52;;
24995;SDS011;13016;52.162;21.034;2022-10-16T19:36:27;17.48;;;13.10;;
24995;SDS011;13016;52.162;21.034;2022-10-16T19:38:58;19.08;;;13.90;;
24995;SDS011;13016;52.162;21.034;2022-10-16T19:41:26;19.80;;;13.43;;
24995;SDS011;13016;52.162;21.034;2022-10-16T19:43:52;18.23;;;13.88;;
24995;SDS011;13016;52.162;21.034;2022-10-16T19:46:19;19.80;;;14.48;;
24995;SDS011;13016;52.162;21.034;2022-10-16T19:48:59;23.40;;;14.38;;
24995;SDS011;13016;52.162;21.034;2022-10-16T19:51:26;21.73;;;13.82;;
24995;SDS011;13016;52.162;21.034;2022-10-16T19:53:53;21.52;;;13.88;;
24995;SDS011;13016;52.162;21.034;2022-10-16T19:56:23;23.50;;;14.15;;
24995;SDS011;13016;52.162;21.034;2022-10-16T19:58:50;18.58;;;13.20;;
24995;SDS011;13016;52.162;21.034;2022-10-16T20:01:17;20.60;;;14.20;;
24995;SDS011;13016;52.162;21.034;2022-10-16T20:03:43;18.38;;;13.60;;
24995;SDS011;13016;52.162;21.034;2022-10-16T20:06:09;19.38;;;13.95;;
24995;SDS011;13016;52.162;21.034;2022-10-16T20:08:36;20.17;;;14.35;;
24995;SDS011;13016;52.162;21.034;2022-10-16T20:11:02;19.80;;;13.48;;
24995;SDS011;13016;52.162;21.034;2022-10-16T20:13:30;19.73;;;13.43;;
24995;SDS011;13016;52.162;21.034;2022-10-16T20:15:56;21.95;;;13.75;;
24995;SDS011;13016;52.162;21.034;2022-10-16T20:18:21;18.83;;;13.85;;
24995;SDS011;13016;52.162;21.034;2022-10-16T20:20:48;20.23;;;14.00;;
24995;SDS011;13016;52.162;21.034;2022-10-16T20:23:14;18.75;;;13.60;;
24995;SDS011;13016;52.162;21.034;2022-10-16T20:25:40;20.85;;;14.13;;
24995;SDS011;13016;52.162;21.034;2022-10-16T20:31:11;22.52;;;13.27;;
24995;SDS011;13016;52.162;21.034;2022-10-16T20:33:38;18.75;;;13.25;;
24995;SDS011;13016;52.162;21.034;2022-10-16T20:36:14;22.98;;;14.15;;
24995;SDS011;13016;52.162;21.034;2022-10-16T20:38:40;21.58;;;13.43;;
24995;SDS011;13016;52.162;21.034;2022-10-16T20:41:07;18.65;;;12.55;;
24995;SDS011;13016;52.162;21.034;2022-10-16T20:43:33;23.85;;;12.82;;
24995;SDS011;13016;52.162;21.034;2022-10-16T20:46:00;20.85;;;13.07;;
24995;SDS011;13016;52.162;21.034;2022-10-16T20:48:27;18.33;;;13.52;;
24995;SDS011;13016;52.162;21.034;2022-10-16T20:50:52;18.08;;;12.25;;
24995;SDS011;13016;52.162;21.034;2022-10-16T20:53:18;18.23;;;12.18;;
24995;SDS011;13016;52.162;21.034;2022-10-16T20:55:43;17.20;;;12.43;;
24995;SDS011;13016;52.162;21.034;2022-10-16T20:58:09;19.17;;;12.57;;
24995;SDS011;13016;52.162;21.034;2022-10-16T21:00:34;15.73;;;12.35;;
24995;SDS011;13016;52.162;21.034;2022-10-16T21:02:59;18.52;;;12.52;;
24995;SDS011;13016;52.162;21.034;2022-10-16T21:05:24;18.55;;;12.63;;
24995;SDS011;13016;52.162;21.034;2022-10-16T21:07:50;16.48;;;12.23;;
24995;SDS011;13016;52.162;21.034;2022-10-16T21:10:15;19.58;;;12.55;;
24995;SDS011;13016;52.162;21.034;2022-10-16T21:12:40;18.25;;;13.25;;
24995;SDS011;13016;52.162;21.034;2022-10-16T21:15:06;18.73;;;13.27;;
24995;SDS011;13016;52.162;21.034;2022-10-16T21:17:31;18.02;;;13.30;;
24995;SDS011;13016;52.162;21.034;2022-10-16T21:19:57;18.58;;;12.52;;
24995;SDS011;13016;52.162;21.034;2022-10-16T21:22:22;19.85;;;13.10;;
24995;SDS011;13016;52.162;21.034;2022-10-16T21:24:47;18.33;;;12.68;;
24995;SDS011;13016;52.162;21.034;2022-10-16T21:27:13;19.92;;;14.02;;
24995;SDS011;13016;52.162;21.034;2022-10-16T21:29:38;17.35;;;12.02;;
24995;SDS011;13016;52.162;21.034;2022-10-16T21:32:03;18.52;;;13.10;;
24995;SDS011;13016;52.162;21.034;2022-10-16T21:34:28;18.40;;;12.52;;
24995;SDS011;13016;52.162;21.034;2022-10-16T21:36:54;18.65;;;12.60;;
24995;SDS011;13016;52.162;21.034;2022-10-16T21:39:19;18.75;;;13.38;;
24995;SDS011;13016;52.162;21.034;2022-10-16T21:41:46;20.30;;;12.32;;
24995;SDS011;13016;52.162;21.034;2022-10-16T21:44:13;21.60;;;12.80;;
24995;SDS011;13016;52.162;21.034;2022-10-16T21:46:39;18.63;;;13.38;;
24995;SDS011;13016;52.162;21.034;2022-10-16T21:49:06;21.70;;;12.85;;
24995;SDS011;13016;52.162;21.034;2022-10-16T21:51:39;18.27;;;12.40;;
24995;SDS011;13016;52.162;21.034;2022-10-16T21:54:08;18.80;;;13.00;;
24995;SDS011;13016;52.162;21.034;2022-10-16T21:56:35;20.30;;;12.68;;
24995;SDS011;13016;52.162;21.034;2022-10-16T21:59:01;17.00;;;12.32;;
24995;SDS011;13016;52.162;21.034;2022-10-16T22:01:27;16.83;;;12.25;;
24995;SDS011;13016;52.162;21.034;2022-10-16T22:03:53;15.75;;;12.05;;
24995;SDS011;13016;52.162;21.034;2022-10-16T22:06:19;17.17;;;13.30;;
24995;SDS011;13016;52.162;21.034;2022-10-16T22:08:46;15.27;;;12.48;;
24995;SDS011;13016;52.162;21.034;2022-10-16T22:11:17;19.83;;;13.02;;
24995;SDS011;13016;52.162;21.034;2022-10-16T22:13:45;18.52;;;13.10;;
24995;SDS011;13016;52.162;21.034;2022-10-16T22:16:10;18.52;;;12.65;;
24995;SDS011;13016;52.162;21.034;2022-10-16T22:18:37;17.83;;;12.00;;
24995;SDS011;13016;52.162;21.034;2022-10-16T22:21:04;18.75;;;12.98;;
24995;SDS011;13016;52.162;21.034;2022-10-16T22:23:31;17.38;;;12.27;;
24995;SDS011;13016;52.162;21.034;2022-10-16T22:25:59;19.55;;;13.10;;
24995;SDS011;13016;52.162;21.034;2022-10-16T22:28:26;19.83;;;13.93;;
24995;SDS011;13016;52.162;21.034;2022-10-16T22:30:52;22.00;;;13.65;;
24995;SDS011;13016;52.162;21.034;2022-10-16T22:33:17;17.88;;;12.90;;
24995;SDS011;13016;52.162;21.034;2022-10-16T22:35:42;20.05;;;13.40;;
24995;SDS011;13016;52.162;21.034;2022-10-16T22:38:08;22.40;;;13.60;;
24995;SDS011;13016;52.162;21.034;2022-10-16T22:40:33;20.33;;;13.38;;
24995;SDS011;13016;52.162;21.034;2022-10-16T22:43:02;17.50;;;13.32;;
24995;SDS011;13016;52.162;21.034;2022-10-16T22:45:28;20.17;;;14.15;;
24995;SDS011;13016;52.162;21.034;2022-10-16T22:47:54;18.75;;;13.55;;
24995;SDS011;13016;52.162;21.034;2022-10-16T22:50:20;18.38;;;12.90;;
24995;SDS011;13016;52.162;21.034;2022-10-16T22:52:45;23.30;;;13.88;;
24995;SDS011;13016;52.162;21.034;2022-10-16T22:55:11;18.75;;;13.55;;
24995;SDS011;13016;52.162;21.034;2022-10-16T22:57:36;18.30;;;13.23;;
24995;SDS011;13016;52.162;21.034;2022-10-16T23:00:02;23.10;;;14.13;;
24995;SDS011;13016;52.162;21.034;2022-10-16T23:02:29;17.90;;;12.88;;
24995;SDS011;13016;52.162;21.034;2022-10-16T23:04:54;17.88;;;12.73;;
24995;SDS011;13016;52.162;21.034;2022-10-16T23:07:20;20.45;;;14.38;;
24995;SDS011;13016;52.162;21.034;2022-10-16T23:09:45;21.67;;;13.38;;
24995;SDS011;13016;52.162;21.034;2022-10-16T23:12:10;21.15;;;12.82;;
24995;SDS011;13016;52.162;21.034;2022-10-16T23:14:35;18.77;;;13.05;;
24995;SDS011;13016;52.162;21.034;2022-10-16T23:17:00;19.35;;;13.45;;
24995;SDS011;13016;52.162;21.034;2022-10-16T23:19:26;16.48;;;12.45;;
24995;SDS011;13016;52.162;21.034;2022-10-16T23:21:51;18.15;;;13.38;;
24995;SDS011;13016;52.162;21.034;2022-10-16T23:24:16;18.30;;;13.48;;
24995;SDS011;13016;52.162;21.034;2022-10-16T23:26:41;21.27;;;12.65;;
24995;SDS011;13016;52.162;21.034;2022-10-16T23:29:08;18.73;;;13.15;;
24995;SDS011;13016;52.162;21.034;2022-10-16T23:31:34;21.23;;;13.00;;
24995;SDS011;13016;52.162;21.034;2022-10-16T23:33:59;17.17;;;12.60;;
24995;SDS011;13016;52.162;21.034;2022-10-16T23:36:24;18.55;;;13.40;;
24995;SDS011;13016;52.162;21.034;2022-10-16T23:38:49;21.15;;;13.10;;
24995;SDS011;13016;52.162;21.034;2022-10-16T23:41:16;21.02;;;13.05;;
24995;SDS011;13016;52.162;21.034;2022-10-16T23:43:42;19.80;;;13.40;;
24995;SDS011;13016;52.162;21.034;2022-10-16T23:46:08;20.27;;;13.27;;
24995;SDS011;13016;52.162;21.034;2022-10-16T23:48:35;17.55;;;12.68;;
24995;SDS011;13016;52.162;21.034;2022-10-16T23:51:01;18.50;;;13.05;;
24995;SDS011;13016;52.162;21.034;2022-10-16T23:53:26;21.02;;;13.57;;
24995;SDS011;13016;52.162;21.034;2022-10-16T23:55:51;18.00;;;13.15;;
24995;SDS011;13016;52.162;21.034;2022-10-16T23:58:17;17.77;;;12.93;;
